Skip Navigation LinksHome page > Weather > Current weather Skip Navigation Links

Current Weather

Boire Field, Nashua, N.H.

For information only: do not use for flight planning or navigation.
Latest weather
Observation time Tuesday, January 26, 2021 4:28 PM EST
Local time Tuesday, January 26, 2021 4:50 PM EST
Flight conditions Instrument Meteorological Conditions
Winds
Wind direction variable
Wind speed 5 mph
Visibility 1 mi.
Present weather snow
Sky condition
Ceiling 2,600 ft. broken clouds
Cloud layer scattered clouds 1,800 ft.
Cloud layer broken clouds 2,600 ft.
Cloud layer overcast 4,800 ft.
Temperature 34°F
Dewpoint 19°F
Altimeter 29.97 in.Hg
Precipitation
Snow began 4:28 PM
Precipitation last hour trace
Derived measurements
Relative humidity 55%
Wind chill 30°F
Density altitude -1504 ft.
Remarks
Automated weather observing station with precipitation discriminator.
METAR KASH 262128Z VRB04KT 1SM SN SCT018 BKN026 OVC048 01/M07 A2997 RMK AO2 SNB28 P0000

Settings

Location code

InnerDrive.Weather 4.0.6770.0 Release CLR 4.0.30319.42000
Copyright ©2018 Inner Drive Technology. All rights reserved. Portions Copyright ©1986-2018 David Braverman.

Find weather

Site navigation


Skip Navigation Links

Place info

Page info

PayPal - The safer, easier way to pay online!

Return home.

Copyright ©2021 Inner Drive Technology. Purveyors of fine, hand-crafted computer software. Page printed 2021-01-26T21:50:48 UTC.